sensor_id;sensor_type;location;lat;lon;timestamp;P1;durP1;ratioP1;P2;durP2;ratioP2
67363;SDS011;54250;45.572;38.086;2024-03-07T00:01:03;4.72;;;2.88;;
67363;SDS011;54250;45.572;38.086;2024-03-07T00:03:29;5.50;;;2.97;;
67363;SDS011;54250;45.572;38.086;2024-03-07T00:05:55;6.28;;;2.72;;
67363;SDS011;54250;45.572;38.086;2024-03-07T00:08:22;3.08;;;2.70;;
67363;SDS011;54250;45.572;38.086;2024-03-07T00:10:48;7.25;;;3.50;;
67363;SDS011;54250;45.572;38.086;2024-03-07T00:13:14;3.42;;;2.75;;
67363;SDS011;54250;45.572;38.086;2024-03-07T00:15:40;6.20;;;2.90;;
67363;SDS011;54250;45.572;38.086;2024-03-07T00:18:06;4.13;;;2.72;;
67363;SDS011;54250;45.572;38.086;2024-03-07T00:20:35;2.47;;;1.73;;
67363;SDS011;54250;45.572;38.086;2024-03-07T00:23:01;5.63;;;2.28;;
67363;SDS011;54250;45.572;38.086;2024-03-07T00:25:28;5.47;;;3.03;;
67363;SDS011;54250;45.572;38.086;2024-03-07T00:27:56;3.17;;;2.47;;
67363;SDS011;54250;45.572;38.086;2024-03-07T00:30:28;2.90;;;2.25;;
67363;SDS011;54250;45.572;38.086;2024-03-07T00:32:55;3.70;;;1.75;;
67363;SDS011;54250;45.572;38.086;2024-03-07T00:35:21;14.15;;;2.13;;
67363;SDS011;54250;45.572;38.086;2024-03-07T00:37:47;4.03;;;2.55;;
67363;SDS011;54250;45.572;38.086;2024-03-07T00:40:13;3.13;;;2.05;;
67363;SDS011;54250;45.572;38.086;2024-03-07T00:42:39;2.55;;;1.83;;
67363;SDS011;54250;45.572;38.086;2024-03-07T00:45:05;3.35;;;2.15;;
67363;SDS011;54250;45.572;38.086;2024-03-07T00:47:31;2.72;;;0.98;;
67363;SDS011;54250;45.572;38.086;2024-03-07T00:49:59;5.75;;;3.08;;
67363;SDS011;54250;45.572;38.086;2024-03-07T00:52:25;8.82;;;2.70;;
67363;SDS011;54250;45.572;38.086;2024-03-07T00:54:51;2.70;;;1.50;;
67363;SDS011;54250;45.572;38.086;2024-03-07T00:57:17;7.43;;;2.67;;
67363;SDS011;54250;45.572;38.086;2024-03-07T00:59:43;3.05;;;2.25;;
67363;SDS011;54250;45.572;38.086;2024-03-07T01:02:09;5.55;;;3.40;;
67363;SDS011;54250;45.572;38.086;2024-03-07T01:04:35;1.63;;;1.35;;
67363;SDS011;54250;45.572;38.086;2024-03-07T01:07:01;3.75;;;2.25;;
67363;SDS011;54250;45.572;38.086;2024-03-07T01:09:27;1.55;;;1.15;;
67363;SDS011;54250;45.572;38.086;2024-03-07T01:11:54;3.13;;;2.03;;
67363;SDS011;54250;45.572;38.086;2024-03-07T01:14:20;4.00;;;2.30;;
67363;SDS011;54250;45.572;38.086;2024-03-07T01:16:47;5.65;;;2.75;;
67363;SDS011;54250;45.572;38.086;2024-03-07T01:19:13;7.90;;;2.10;;
67363;SDS011;54250;45.572;38.086;2024-03-07T01:21:40;2.25;;;1.33;;
67363;SDS011;54250;45.572;38.086;2024-03-07T01:24:06;2.40;;;1.58;;
67363;SDS011;54250;45.572;38.086;2024-03-07T01:26:32;0.95;;;0.80;;
67363;SDS011;54250;45.572;38.086;2024-03-07T01:29:00;2.85;;;1.73;;
67363;SDS011;54250;45.572;38.086;2024-03-07T01:31:26;3.90;;;1.85;;
67363;SDS011;54250;45.572;38.086;2024-03-07T01:33:53;5.10;;;2.35;;
67363;SDS011;54250;45.572;38.086;2024-03-07T01:36:19;2.13;;;1.58;;
67363;SDS011;54250;45.572;38.086;2024-03-07T01:38:48;3.65;;;2.58;;
67363;SDS011;54250;45.572;38.086;2024-03-07T01:41:14;2.63;;;1.90;;
67363;SDS011;54250;45.572;38.086;2024-03-07T01:43:41;2.00;;;1.70;;
67363;SDS011;54250;45.572;38.086;2024-03-07T01:46:07;4.38;;;1.92;;
67363;SDS011;54250;45.572;38.086;2024-03-07T01:48:35;2.67;;;1.30;;
67363;SDS011;54250;45.572;38.086;2024-03-07T01:51:02;6.95;;;2.30;;
67363;SDS011;54250;45.572;38.086;2024-03-07T01:53:31;2.60;;;1.58;;
67363;SDS011;54250;45.572;38.086;2024-03-07T01:55:59;5.82;;;1.95;;
67363;SDS011;54250;45.572;38.086;2024-03-07T01:58:25;6.70;;;1.52;;
67363;SDS011;54250;45.572;38.086;2024-03-07T02:00:51;17.15;;;1.92;;
67363;SDS011;54250;45.572;38.086;2024-03-07T02:03:18;3.05;;;1.98;;
67363;SDS011;54250;45.572;38.086;2024-03-07T02:05:44;6.68;;;1.60;;
67363;SDS011;54250;45.572;38.086;2024-03-07T02:08:10;2.10;;;1.13;;
67363;SDS011;54250;45.572;38.086;2024-03-07T02:10:36;2.13;;;1.40;;
67363;SDS011;54250;45.572;38.086;2024-03-07T02:13:03;3.22;;;1.85;;
67363;SDS011;54250;45.572;38.086;2024-03-07T02:15:29;4.57;;;2.20;;
67363;SDS011;54250;45.572;38.086;2024-03-07T02:17:55;2.92;;;1.52;;
67363;SDS011;54250;45.572;38.086;2024-03-07T02:20:21;2.15;;;1.73;;
67363;SDS011;54250;45.572;38.086;2024-03-07T02:22:47;1.75;;;1.55;;
67363;SDS011;54250;45.572;38.086;2024-03-07T02:25:13;5.30;;;3.47;;
67363;SDS011;54250;45.572;38.086;2024-03-07T02:27:41;1.55;;;1.35;;
67363;SDS011;54250;45.572;38.086;2024-03-07T02:30:07;2.35;;;1.42;;
67363;SDS011;54250;45.572;38.086;2024-03-07T02:32:34;1.95;;;1.55;;
67363;SDS011;54250;45.572;38.086;2024-03-07T02:35:02;2.95;;;1.63;;
67363;SDS011;54250;45.572;38.086;2024-03-07T02:37:29;1.95;;;1.50;;
67363;SDS011;54250;45.572;38.086;2024-03-07T02:39:55;4.07;;;2.22;;
67363;SDS011;54250;45.572;38.086;2024-03-07T02:42:21;2.78;;;1.90;;
67363;SDS011;54250;45.572;38.086;2024-03-07T02:44:47;3.38;;;1.80;;
67363;SDS011;54250;45.572;38.086;2024-03-07T02:47:13;3.08;;;2.13;;
67363;SDS011;54250;45.572;38.086;2024-03-07T02:49:39;1.63;;;1.35;;
67363;SDS011;54250;45.572;38.086;2024-03-07T02:52:05;5.50;;;1.85;;
67363;SDS011;54250;45.572;38.086;2024-03-07T02:54:33;3.15;;;2.10;;
67363;SDS011;54250;45.572;38.086;2024-03-07T02:56:59;8.00;;;1.63;;
67363;SDS011;54250;45.572;38.086;2024-03-07T02:59:25;2.33;;;1.33;;
67363;SDS011;54250;45.572;38.086;2024-03-07T03:01:51;3.42;;;2.33;;
67363;SDS011;54250;45.572;38.086;2024-03-07T03:04:17;1.33;;;1.05;;
67363;SDS011;54250;45.572;38.086;2024-03-07T03:06:43;2.97;;;1.88;;
67363;SDS011;54250;45.572;38.086;2024-03-07T03:09:10;15.20;;;2.05;;
67363;SDS011;54250;45.572;38.086;2024-03-07T03:11:43;4.15;;;1.75;;
67363;SDS011;54250;45.572;38.086;2024-03-07T03:14:10;1.42;;;1.15;;
67363;SDS011;54250;45.572;38.086;2024-03-07T03:16:36;6.88;;;2.35;;
67363;SDS011;54250;45.572;38.086;2024-03-07T03:19:07;2.03;;;1.83;;
67363;SDS011;54250;45.572;38.086;2024-03-07T03:21:34;2.05;;;1.50;;
67363;SDS011;54250;45.572;38.086;2024-03-07T03:24:00;2.28;;;1.58;;
67363;SDS011;54250;45.572;38.086;2024-03-07T03:26:27;2.08;;;1.33;;
67363;SDS011;54250;45.572;38.086;2024-03-07T03:28:54;3.25;;;2.35;;
67363;SDS011;54250;45.572;38.086;2024-03-07T03:31:20;4.45;;;2.72;;
67363;SDS011;54250;45.572;38.086;2024-03-07T03:33:45;4.05;;;2.33;;
67363;SDS011;54250;45.572;38.086;2024-03-07T03:36:11;5.47;;;2.05;;
67363;SDS011;54250;45.572;38.086;2024-03-07T03:38:37;2.20;;;1.58;;
67363;SDS011;54250;45.572;38.086;2024-03-07T03:41:03;1.98;;;1.70;;
67363;SDS011;54250;45.572;38.086;2024-03-07T03:43:30;6.28;;;2.10;;
67363;SDS011;54250;45.572;38.086;2024-03-07T03:45:57;2.72;;;1.70;;
67363;SDS011;54250;45.572;38.086;2024-03-07T03:48:23;0.93;;;0.90;;
67363;SDS011;54250;45.572;38.086;2024-03-07T03:50:49;7.22;;;1.77;;
67363;SDS011;54250;45.572;38.086;2024-03-07T03:53:15;2.55;;;1.58;;
67363;SDS011;54250;45.572;38.086;2024-03-07T03:55:41;3.45;;;2.20;;
67363;SDS011;54250;45.572;38.086;2024-03-07T03:58:07;2.97;;;1.80;;
67363;SDS011;54250;45.572;38.086;2024-03-07T04:00:33;2.38;;;1.65;;
67363;SDS011;54250;45.572;38.086;2024-03-07T04:02:59;3.78;;;1.98;;
67363;SDS011;54250;45.572;38.086;2024-03-07T04:05:25;1.67;;;1.25;;
67363;SDS011;54250;45.572;38.086;2024-03-07T04:07:51;3.53;;;2.38;;
67363;SDS011;54250;45.572;38.086;2024-03-07T04:10:17;3.92;;;1.73;;
67363;SDS011;54250;45.572;38.086;2024-03-07T04:12:43;1.77;;;1.60;;
67363;SDS011;54250;45.572;38.086;2024-03-07T04:15:10;3.30;;;2.60;;
67363;SDS011;54250;45.572;38.086;2024-03-07T04:17:37;2.53;;;1.65;;
67363;SDS011;54250;45.572;38.086;2024-03-07T04:20:04;3.90;;;2.42;;
67363;SDS011;54250;45.572;38.086;2024-03-07T04:22:32;2.10;;;1.52;;
67363;SDS011;54250;45.572;38.086;2024-03-07T04:24:59;3.95;;;1.48;;
67363;SDS011;54250;45.572;38.086;2024-03-07T04:27:28;17.80;;;2.15;;
67363;SDS011;54250;45.572;38.086;2024-03-07T04:29:54;2.60;;;2.05;;
67363;SDS011;54250;45.572;38.086;2024-03-07T04:32:20;3.42;;;1.63;;
67363;SDS011;54250;45.572;38.086;2024-03-07T04:34:46;2.92;;;1.73;;
67363;SDS011;54250;45.572;38.086;2024-03-07T04:37:14;2.90;;;1.80;;
67363;SDS011;54250;45.572;38.086;2024-03-07T04:39:40;1.65;;;1.48;;
67363;SDS011;54250;45.572;38.086;2024-03-07T04:42:06;1.55;;;1.10;;
67363;SDS011;54250;45.572;38.086;2024-03-07T04:44:34;1.05;;;0.95;;
67363;SDS011;54250;45.572;38.086;2024-03-07T04:47:04;2.33;;;1.85;;
67363;SDS011;54250;45.572;38.086;2024-03-07T04:49:31;2.63;;;1.75;;
67363;SDS011;54250;45.572;38.086;2024-03-07T04:51:58;2.50;;;1.85;;
67363;SDS011;54250;45.572;38.086;2024-03-07T04:54:25;12.32;;;3.00;;
67363;SDS011;54250;45.572;38.086;2024-03-07T04:56:53;4.97;;;3.08;;
67363;SDS011;54250;45.572;38.086;2024-03-07T04:59:19;3.58;;;2.00;;
67363;SDS011;54250;45.572;38.086;2024-03-07T05:01:46;5.22;;;1.98;;
67363;SDS011;54250;45.572;38.086;2024-03-07T05:04:13;3.53;;;2.58;;
67363;SDS011;54250;45.572;38.086;2024-03-07T05:06:40;4.82;;;2.60;;
67363;SDS011;54250;45.572;38.086;2024-03-07T05:09:09;4.63;;;2.75;;
67363;SDS011;54250;45.572;38.086;2024-03-07T05:11:48;3.70;;;2.20;;
67363;SDS011;54250;45.572;38.086;2024-03-07T05:14:18;5.30;;;2.72;;
67363;SDS011;54250;45.572;38.086;2024-03-07T05:16:44;2.80;;;1.95;;
67363;SDS011;54250;45.572;38.086;2024-03-07T05:19:10;3.53;;;2.17;;
67363;SDS011;54250;45.572;38.086;2024-03-07T05:21:36;4.35;;;2.80;;
67363;SDS011;54250;45.572;38.086;2024-03-07T05:24:08;2.17;;;1.58;;
67363;SDS011;54250;45.572;38.086;2024-03-07T05:26:35;8.70;;;3.20;;
67363;SDS011;54250;45.572;38.086;2024-03-07T05:29:06;2.90;;;1.98;;
67363;SDS011;54250;45.572;38.086;2024-03-07T05:31:34;3.05;;;2.13;;
67363;SDS011;54250;45.572;38.086;2024-03-07T05:34:04;2.47;;;1.55;;
67363;SDS011;54250;45.572;38.086;2024-03-07T05:36:34;3.60;;;2.35;;
67363;SDS011;54250;45.572;38.086;2024-03-07T05:39:00;5.38;;;2.42;;
67363;SDS011;54250;45.572;38.086;2024-03-07T05:41:35;1.85;;;1.67;;
67363;SDS011;54250;45.572;38.086;2024-03-07T05:44:01;2.05;;;1.75;;
67363;SDS011;54250;45.572;38.086;2024-03-07T05:46:27;3.85;;;2.33;;
67363;SDS011;54250;45.572;38.086;2024-03-07T05:48:53;6.40;;;2.70;;
67363;SDS011;54250;45.572;38.086;2024-03-07T05:51:22;3.75;;;3.03;;
67363;SDS011;54250;45.572;38.086;2024-03-07T05:53:49;4.57;;;3.75;;
67363;SDS011;54250;45.572;38.086;2024-03-07T05:56:15;2.85;;;2.45;;
67363;SDS011;54250;45.572;38.086;2024-03-07T05:58:41;2.88;;;1.95;;
67363;SDS011;54250;45.572;38.086;2024-03-07T06:01:07;3.38;;;2.22;;
67363;SDS011;54250;45.572;38.086;2024-03-07T06:03:36;3.50;;;2.92;;
67363;SDS011;54250;45.572;38.086;2024-03-07T06:06:02;3.53;;;1.88;;
67363;SDS011;54250;45.572;38.086;2024-03-07T06:08:31;2.15;;;1.88;;
67363;SDS011;54250;45.572;38.086;2024-03-07T06:10:57;4.80;;;2.85;;
67363;SDS011;54250;45.572;38.086;2024-03-07T06:13:23;3.63;;;2.58;;
67363;SDS011;54250;45.572;38.086;2024-03-07T06:15:49;3.40;;;2.38;;
67363;SDS011;54250;45.572;38.086;2024-03-07T06:18:15;4.53;;;2.95;;
67363;SDS011;54250;45.572;38.086;2024-03-07T06:20:41;3.50;;;2.58;;
67363;SDS011;54250;45.572;38.086;2024-03-07T06:23:08;4.80;;;3.38;;
67363;SDS011;54250;45.572;38.086;2024-03-07T06:25:37;5.85;;;2.97;;
67363;SDS011;54250;45.572;38.086;2024-03-07T06:28:13;4.68;;;3.17;;
67363;SDS011;54250;45.572;38.086;2024-03-07T06:30:39;8.65;;;4.25;;
67363;SDS011;54250;45.572;38.086;2024-03-07T06:33:07;3.42;;;2.58;;
67363;SDS011;54250;45.572;38.086;2024-03-07T06:35:33;3.55;;;2.70;;
67363;SDS011;54250;45.572;38.086;2024-03-07T06:38:08;3.40;;;2.25;;
67363;SDS011;54250;45.572;38.086;2024-03-07T06:40:35;6.55;;;3.95;;
67363;SDS011;54250;45.572;38.086;2024-03-07T06:43:04;4.80;;;2.85;;
67363;SDS011;54250;45.572;38.086;2024-03-07T06:45:32;3.72;;;2.22;;
67363;SDS011;54250;45.572;38.086;2024-03-07T06:47:59;5.80;;;4.65;;
67363;SDS011;54250;45.572;38.086;2024-03-07T06:50:26;4.75;;;3.25;;
67363;SDS011;54250;45.572;38.086;2024-03-07T06:52:54;2.97;;;1.75;;
67363;SDS011;54250;45.572;38.086;2024-03-07T06:55:21;5.75;;;3.90;;
67363;SDS011;54250;45.572;38.086;2024-03-07T06:57:47;5.53;;;3.40;;
67363;SDS011;54250;45.572;38.086;2024-03-07T07:00:14;7.20;;;4.13;;
67363;SDS011;54250;45.572;38.086;2024-03-07T07:02:47;5.97;;;3.00;;
67363;SDS011;54250;45.572;38.086;2024-03-07T07:05:14;5.07;;;3.22;;
67363;SDS011;54250;45.572;38.086;2024-03-07T07:07:47;4.00;;;2.45;;
67363;SDS011;54250;45.572;38.086;2024-03-07T07:10:13;5.70;;;4.05;;
67363;SDS011;54250;45.572;38.086;2024-03-07T07:12:49;3.78;;;2.42;;
67363;SDS011;54250;45.572;38.086;2024-03-07T07:15:16;2.80;;;2.53;;
67363;SDS011;54250;45.572;38.086;2024-03-07T07:17:44;7.28;;;4.05;;
67363;SDS011;54250;45.572;38.086;2024-03-07T07:20:15;3.88;;;2.88;;
67363;SDS011;54250;45.572;38.086;2024-03-07T07:22:42;9.82;;;3.20;;
67363;SDS011;54250;45.572;38.086;2024-03-07T07:25:11;4.70;;;3.53;;
67363;SDS011;54250;45.572;38.086;2024-03-07T07:27:42;6.63;;;3.05;;
67363;SDS011;54250;45.572;38.086;2024-03-07T07:30:10;3.28;;;2.15;;
67363;SDS011;54250;45.572;38.086;2024-03-07T07:32:37;6.60;;;4.38;;
67363;SDS011;54250;45.572;38.086;2024-03-07T07:35:04;7.10;;;3.03;;
67363;SDS011;54250;45.572;38.086;2024-03-07T07:37:35;4.90;;;2.97;;
67363;SDS011;54250;45.572;38.086;2024-03-07T07:40:02;6.00;;;3.72;;
67363;SDS011;54250;45.572;38.086;2024-03-07T07:42:29;6.43;;;3.65;;
67363;SDS011;54250;45.572;38.086;2024-03-07T07:44:55;5.25;;;3.58;;
67363;SDS011;54250;45.572;38.086;2024-03-07T07:47:20;8.18;;;5.05;;
67363;SDS011;54250;45.572;38.086;2024-03-07T07:49:46;16.35;;;3.70;;
67363;SDS011;54250;45.572;38.086;2024-03-07T07:52:13;4.95;;;3.60;;
67363;SDS011;54250;45.572;38.086;2024-03-07T07:54:42;3.80;;;2.60;;
67363;SDS011;54250;45.572;38.086;2024-03-07T07:57:08;4.72;;;3.60;;
67363;SDS011;54250;45.572;38.086;2024-03-07T07:59:34;8.57;;;4.63;;
67363;SDS011;54250;45.572;38.086;2024-03-07T08:02:02;5.53;;;2.83;;
67363;SDS011;54250;45.572;38.086;2024-03-07T08:04:31;7.57;;;5.53;;
67363;SDS011;54250;45.572;38.086;2024-03-07T08:06:58;4.97;;;3.50;;
67363;SDS011;54250;45.572;38.086;2024-03-07T08:09:24;3.85;;;2.67;;
67363;SDS011;54250;45.572;38.086;2024-03-07T08:11:49;8.00;;;5.43;;
67363;SDS011;54250;45.572;38.086;2024-03-07T08:14:17;7.53;;;4.43;;
67363;SDS011;54250;45.572;38.086;2024-03-07T08:16:43;4.55;;;3.50;;
67363;SDS011;54250;45.572;38.086;2024-03-07T08:19:15;5.43;;;3.60;;
67363;SDS011;54250;45.572;38.086;2024-03-07T08:21:40;5.93;;;3.92;;
67363;SDS011;54250;45.572;38.086;2024-03-07T08:24:06;8.10;;;6.32;;
67363;SDS011;54250;45.572;38.086;2024-03-07T08:26:36;4.03;;;2.97;;
67363;SDS011;54250;45.572;38.086;2024-03-07T08:29:02;6.70;;;4.35;;
67363;SDS011;54250;45.572;38.086;2024-03-07T08:31:30;6.18;;;4.00;;
67363;SDS011;54250;45.572;38.086;2024-03-07T08:33:56;7.32;;;3.78;;
67363;SDS011;54250;45.572;38.086;2024-03-07T08:36:21;3.90;;;3.05;;
67363;SDS011;54250;45.572;38.086;2024-03-07T08:38:47;7.93;;;4.15;;
67363;SDS011;54250;45.572;38.086;2024-03-07T08:41:13;3.83;;;2.78;;
67363;SDS011;54250;45.572;38.086;2024-03-07T08:43:39;6.85;;;3.95;;
67363;SDS011;54250;45.572;38.086;2024-03-07T08:46:05;8.55;;;5.22;;
67363;SDS011;54250;45.572;38.086;2024-03-07T08:48:31;15.98;;;6.00;;
67363;SDS011;54250;45.572;38.086;2024-03-07T08:50:57;3.60;;;2.72;;
67363;SDS011;54250;45.572;38.086;2024-03-07T08:53:23;4.85;;;3.65;;
67363;SDS011;54250;45.572;38.086;2024-03-07T08:55:49;6.15;;;4.18;;
67363;SDS011;54250;45.572;38.086;2024-03-07T08:58:16;11.90;;;6.53;;
67363;SDS011;54250;45.572;38.086;2024-03-07T09:00:41;5.32;;;3.67;;
67363;SDS011;54250;45.572;38.086;2024-03-07T09:03:10;9.85;;;4.78;;
67363;SDS011;54250;45.572;38.086;2024-03-07T09:05:36;7.57;;;5.10;;
67363;SDS011;54250;45.572;38.086;2024-03-07T09:08:02;4.85;;;3.30;;
67363;SDS011;54250;45.572;38.086;2024-03-07T09:10:28;8.57;;;4.65;;
67363;SDS011;54250;45.572;38.086;2024-03-07T09:12:58;11.52;;;4.53;;
67363;SDS011;54250;45.572;38.086;2024-03-07T09:15:24;10.18;;;5.47;;
67363;SDS011;54250;45.572;38.086;2024-03-07T09:17:50;7.93;;;5.10;;
67363;SDS011;54250;45.572;38.086;2024-03-07T09:20:16;9.77;;;6.18;;
67363;SDS011;54250;45.572;38.086;2024-03-07T09:22:44;7.97;;;5.05;;
67363;SDS011;54250;45.572;38.086;2024-03-07T09:25:10;8.88;;;5.13;;
67363;SDS011;54250;45.572;38.086;2024-03-07T09:27:38;5.32;;;3.97;;
67363;SDS011;54250;45.572;38.086;2024-03-07T09:30:08;11.52;;;6.40;;
67363;SDS011;54250;45.572;38.086;2024-03-07T09:32:40;24.95;;;5.72;;
67363;SDS011;54250;45.572;38.086;2024-03-07T09:35:07;5.07;;;3.72;;
67363;SDS011;54250;45.572;38.086;2024-03-07T09:37:37;8.82;;;5.32;;
67363;SDS011;54250;45.572;38.086;2024-03-07T09:40:07;6.40;;;4.43;;
67363;SDS011;54250;45.572;38.086;2024-03-07T09:42:46;4.78;;;3.88;;
67363;SDS011;54250;45.572;38.086;2024-03-07T09:47:42;4.65;;;3.50;;
67363;SDS011;54250;45.572;38.086;2024-03-07T09:50:12;3.85;;;2.80;;
67363;SDS011;54250;45.572;38.086;2024-03-07T09:52:38;7.50;;;4.35;;
67363;SDS011;54250;45.572;38.086;2024-03-07T09:55:07;7.70;;;5.35;;
67363;SDS011;54250;45.572;38.086;2024-03-07T09:57:33;4.93;;;3.97;;
67363;SDS011;54250;45.572;38.086;2024-03-07T10:00:01;5.90;;;4.05;;
67363;SDS011;54250;45.572;38.086;2024-03-07T10:02:38;6.68;;;4.03;;
67363;SDS011;54250;45.572;38.086;2024-03-07T10:05:06;13.18;;;5.07;;
67363;SDS011;54250;45.572;38.086;2024-03-07T10:07:33;6.07;;;4.50;;
67363;SDS011;54250;45.572;38.086;2024-03-07T10:10:00;7.97;;;5.25;;
67363;SDS011;54250;45.572;38.086;2024-03-07T10:12:31;6.05;;;3.70;;
67363;SDS011;54250;45.572;38.086;2024-03-07T10:14:57;7.07;;;4.20;;
67363;SDS011;54250;45.572;38.086;2024-03-07T10:17:26;5.80;;;4.15;;
67363;SDS011;54250;45.572;38.086;2024-03-07T10:19:52;7.95;;;5.45;;
67363;SDS011;54250;45.572;38.086;2024-03-07T10:22:20;12.20;;;7.35;;
67363;SDS011;54250;45.572;38.086;2024-03-07T10:24:49;11.40;;;5.85;;
67363;SDS011;54250;45.572;38.086;2024-03-07T10:27:19;7.93;;;4.18;;
67363;SDS011;54250;45.572;38.086;2024-03-07T10:29:48;7.82;;;4.82;;
67363;SDS011;54250;45.572;38.086;2024-03-07T10:32:20;4.65;;;2.95;;
67363;SDS011;54250;45.572;38.086;2024-03-07T10:34:48;14.63;;;8.18;;
67363;SDS011;54250;45.572;38.086;2024-03-07T10:37:16;11.48;;;7.47;;
67363;SDS011;54250;45.572;38.086;2024-03-07T10:39:43;9.82;;;6.85;;
67363;SDS011;54250;45.572;38.086;2024-03-07T10:42:13;5.90;;;4.72;;
67363;SDS011;54250;45.572;38.086;2024-03-07T10:44:46;12.82;;;7.43;;
67363;SDS011;54250;45.572;38.086;2024-03-07T10:47:17;7.88;;;5.32;;
67363;SDS011;54250;45.572;38.086;2024-03-07T10:49:48;6.65;;;4.07;;
67363;SDS011;54250;45.572;38.086;2024-03-07T10:55:34;8.10;;;5.72;;
67363;SDS011;54250;45.572;38.086;2024-03-07T10:58:37;9.85;;;6.32;;
67363;SDS011;54250;45.572;38.086;2024-03-07T11:01:14;9.27;;;6.00;;
67363;SDS011;54250;45.572;38.086;2024-03-07T11:03:43;8.45;;;5.75;;
67363;SDS011;54250;45.572;38.086;2024-03-07T11:06:10;10.80;;;5.00;;
67363;SDS011;54250;45.572;38.086;2024-03-07T11:08:36;12.10;;;7.55;;
67363;SDS011;54250;45.572;38.086;2024-03-07T11:11:03;8.93;;;5.60;;
67363;SDS011;54250;45.572;38.086;2024-03-07T11:13:29;21.27;;;7.78;;
67363;SDS011;54250;45.572;38.086;2024-03-07T11:15:57;5.35;;;3.90;;
67363;SDS011;54250;45.572;38.086;2024-03-07T11:18:26;7.57;;;4.95;;
67363;SDS011;54250;45.572;38.086;2024-03-07T11:20:52;7.68;;;5.25;;
67363;SDS011;54250;45.572;38.086;2024-03-07T11:23:29;12.82;;;7.22;;
67363;SDS011;54250;45.572;38.086;2024-03-07T11:28:33;14.00;;;6.63;;
67363;SDS011;54250;45.572;38.086;2024-03-07T11:31:12;14.63;;;5.82;;
67363;SDS011;54250;45.572;38.086;2024-03-07T11:33:40;8.65;;;5.45;;
67363;SDS011;54250;45.572;38.086;2024-03-07T11:36:09;13.38;;;6.75;;
67363;SDS011;54250;45.572;38.086;2024-03-07T11:38:47;4.60;;;3.85;;
67363;SDS011;54250;45.572;38.086;2024-03-07T11:41:14;19.15;;;7.40;;
67363;SDS011;54250;45.572;38.086;2024-03-07T11:43:40;15.50;;;6.72;;
67363;SDS011;54250;45.572;38.086;2024-03-07T11:46:08;7.25;;;5.05;;
67363;SDS011;54250;45.572;38.086;2024-03-07T11:48:40;17.15;;;7.13;;
67363;SDS011;54250;45.572;38.086;2024-03-07T11:51:17;13.60;;;6.65;;
67363;SDS011;54250;45.572;38.086;2024-03-07T11:53:43;7.80;;;5.30;;
67363;SDS011;54250;45.572;38.086;2024-03-07T11:56:09;8.13;;;5.50;;
67363;SDS011;54250;45.572;38.086;2024-03-07T11:58:41;6.78;;;4.78;;
67363;SDS011;54250;45.572;38.086;2024-03-07T12:01:09;9.93;;;7.15;;
67363;SDS011;54250;45.572;38.086;2024-03-07T12:03:39;11.20;;;6.47;;
67363;SDS011;54250;45.572;38.086;2024-03-07T12:06:07;9.30;;;6.63;;
67363;SDS011;54250;45.572;38.086;2024-03-07T12:08:37;7.78;;;5.13;;
67363;SDS011;54250;45.572;38.086;2024-03-07T12:11:04;15.30;;;8.35;;
67363;SDS011;54250;45.572;38.086;2024-03-07T12:13:30;15.15;;;5.45;;
67363;SDS011;54250;45.572;38.086;2024-03-07T12:15:57;10.50;;;5.13;;
67363;SDS011;54250;45.572;38.086;2024-03-07T12:18:24;7.72;;;4.90;;
67363;SDS011;54250;45.572;38.086;2024-03-07T12:20:52;10.93;;;6.70;;
67363;SDS011;54250;45.572;38.086;2024-03-07T12:23:24;13.90;;;6.85;;
67363;SDS011;54250;45.572;38.086;2024-03-07T12:26:00;9.35;;;5.43;;
67363;SDS011;54250;45.572;38.086;2024-03-07T12:28:27;7.18;;;5.72;;
67363;SDS011;54250;45.572;38.086;2024-03-07T12:30:58;8.68;;;6.30;;
67363;SDS011;54250;45.572;38.086;2024-03-07T12:33:28;9.38;;;4.95;;
67363;SDS011;54250;45.572;38.086;2024-03-07T12:35:55;11.35;;;5.88;;
67363;SDS011;54250;45.572;38.086;2024-03-07T12:38:31;19.50;;;8.43;;
67363;SDS011;54250;45.572;38.086;2024-03-07T12:41:07;6.35;;;4.38;;
67363;SDS011;54250;45.572;38.086;2024-03-07T12:43:39;6.70;;;5.30;;
67363;SDS011;54250;45.572;38.086;2024-03-07T12:46:07;26.40;;;7.55;;
67363;SDS011;54250;45.572;38.086;2024-03-07T12:48:37;13.68;;;5.97;;
67363;SDS011;54250;45.572;38.086;2024-03-07T12:51:04;11.35;;;5.63;;
67363;SDS011;54250;45.572;38.086;2024-03-07T12:53:30;8.40;;;5.15;;
67363;SDS011;54250;45.572;38.086;2024-03-07T12:55:56;12.57;;;5.22;;
67363;SDS011;54250;45.572;38.086;2024-03-07T12:58:22;11.68;;;6.43;;
67363;SDS011;54250;45.572;38.086;2024-03-07T13:00:57;6.07;;;4.05;;
67363;SDS011;54250;45.572;38.086;2024-03-07T13:03:23;10.32;;;4.25;;
67363;SDS011;54250;45.572;38.086;2024-03-07T13:05:58;15.85;;;5.57;;
67363;SDS011;54250;45.572;38.086;2024-03-07T13:08:26;7.70;;;5.43;;
67363;SDS011;54250;45.572;38.086;2024-03-07T13:10:54;11.60;;;5.78;;
67363;SDS011;54250;45.572;38.086;2024-03-07T13:13:20;9.82;;;5.82;;
67363;SDS011;54250;45.572;38.086;2024-03-07T13:15:47;11.55;;;7.18;;
67363;SDS011;54250;45.572;38.086;2024-03-07T13:18:14;13.82;;;7.65;;
67363;SDS011;54250;45.572;38.086;2024-03-07T13:20:40;26.20;;;6.60;;
67363;SDS011;54250;45.572;38.086;2024-03-07T13:23:08;6.65;;;4.95;;
67363;SDS011;54250;45.572;38.086;2024-03-07T13:25:35;9.48;;;5.05;;
67363;SDS011;54250;45.572;38.086;2024-03-07T13:30:28;11.65;;;5.80;;
67363;SDS011;54250;45.572;38.086;2024-03-07T13:32:58;12.45;;;4.78;;
67363;SDS011;54250;45.572;38.086;2024-03-07T13:35:24;6.78;;;4.10;;
67363;SDS011;54250;45.572;38.086;2024-03-07T13:37:51;9.90;;;6.40;;
67363;SDS011;54250;45.572;38.086;2024-03-07T13:40:22;14.85;;;5.82;;
67363;SDS011;54250;45.572;38.086;2024-03-07T13:42:56;11.48;;;6.63;;
67363;SDS011;54250;45.572;38.086;2024-03-07T13:45:23;7.60;;;4.93;;
67363;SDS011;54250;45.572;38.086;2024-03-07T13:47:53;7.80;;;5.22;;
67363;SDS011;54250;45.572;38.086;2024-03-07T13:50:21;9.25;;;5.90;;
67363;SDS011;54250;45.572;38.086;2024-03-07T13:52:50;16.30;;;6.13;;
67363;SDS011;54250;45.572;38.086;2024-03-07T14:12:31;12.30;;;6.47;;
67363;SDS011;54250;45.572;38.086;2024-03-07T14:23:24;10.70;;;6.72;;
67363;SDS011;54250;45.572;38.086;2024-03-07T14:26:30;8.18;;;4.22;;
67363;SDS011;54250;45.572;38.086;2024-03-07T14:32:22;9.45;;;5.97;;
67363;SDS011;54250;45.572;38.086;2024-03-07T14:35:02;7.15;;;4.55;;
67363;SDS011;54250;45.572;38.086;2024-03-07T14:37:45;8.18;;;4.93;;
67363;SDS011;54250;45.572;38.086;2024-03-07T14:40:15;8.55;;;5.63;;
67363;SDS011;54250;45.572;38.086;2024-03-07T14:42:45;11.00;;;5.85;;
67363;SDS011;54250;45.572;38.086;2024-03-07T14:45:35;9.80;;;3.70;;
67363;SDS011;54250;45.572;38.086;2024-03-07T14:48:03;9.00;;;5.15;;
67363;SDS011;54250;45.572;38.086;2024-03-07T14:50:30;7.40;;;4.22;;
67363;SDS011;54250;45.572;38.086;2024-03-07T14:52:58;13.13;;;6.57;;
67363;SDS011;54250;45.572;38.086;2024-03-07T14:55:24;8.77;;;5.13;;
67363;SDS011;54250;45.572;38.086;2024-03-07T14:57:51;8.13;;;4.68;;
67363;SDS011;54250;45.572;38.086;2024-03-07T15:00:16;10.13;;;5.90;;
67363;SDS011;54250;45.572;38.086;2024-03-07T15:02:45;9.13;;;3.97;;
67363;SDS011;54250;45.572;38.086;2024-03-07T15:05:12;13.95;;;6.63;;
67363;SDS011;54250;45.572;38.086;2024-03-07T15:07:39;5.53;;;3.60;;
67363;SDS011;54250;45.572;38.086;2024-03-07T15:10:06;9.00;;;5.25;;
67363;SDS011;54250;45.572;38.086;2024-03-07T15:12:44;10.65;;;5.95;;
67363;SDS011;54250;45.572;38.086;2024-03-07T15:15:12;3.97;;;2.42;;
67363;SDS011;54250;45.572;38.086;2024-03-07T15:17:41;9.02;;;5.47;;